Time;durP1;ratioP1;P1;durP2;ratioP2;P2;SDS_P1;SDS_P2;PMS_P1;PMS_P2;Temp;Humidity;BMP_temperature;BMP_pressure;BME280_temperature;BME280_humidity;BME280_pressure;Samples;Min_cycle;Max_cycle;Signal;HPM_P1;HPM_P2
2023/04/02 00:01:28;;;;;;;;;;;;;;;10.91;61.80;98834.75;4991983;28;19922;-87
2023/04/02 00:03:58;;;;;;;;;;;;;;;10.78;62.44;98833.41;4992182;28;19917;-87
2023/04/02 00:06:29;;;;;;;;;;;;;;;10.77;62.49;98829.00;4992493;28;20310;-87
2023/04/02 00:08:57;;;;;;;;;;;;;;;10.68;62.93;98832.81;5001087;28;19913;-87
2023/04/02 00:11:33;;;;;;;;;;;;;;;10.69;62.71;98824.84;5011893;28;19975;-87
2023/04/02 00:13:59;;;;;;;;;;;;;;;10.37;63.61;98818.72;5011602;28;19913;-88
2023/04/02 00:16:26;;;;;;;;;;;;;;;10.43;63.62;98815.06;5011854;28;19964;-88
2023/04/02 00:18:53;;;;;;;;;;;;;;;10.35;63.54;98822.31;5011738;28;19917;-86
2023/04/02 00:21:24;;;;;;;;;;;;;;;10.34;64.37;98834.63;5011924;28;19920;-86
2023/04/02 00:23:52;;;;;;;;;;;;;;;10.45;63.56;98838.75;5011370;28;20012;-88
2023/04/02 00:26:39;;;;;;;;;;;;;;;10.42;63.69;98839.69;5011288;28;19913;-88
2023/04/02 00:29:06;;;;;;;;;;;;;;;10.48;63.70;98839.50;5026362;28;19921;-87
2023/04/02 00:31:32;;;;;;;;;;;;;;;10.57;63.39;98841.88;5011131;28;20008;-88
2023/04/02 00:34:03;;;;;;;;;;;;;;;10.24;64.12;98835.78;5011191;28;19918;-88
2023/04/02 00:36:29;;;;;;;;;;;;;;;10.25;64.10;98836.63;5011504;28;19956;-88
2023/04/02 00:38:56;;;;;;;;;;;;;;;10.16;64.35;98837.72;5011190;28;19913;-87
2023/04/02 00:41:26;;;;;;;;;;;;;;;10.00;64.43;98832.88;5011468;28;19913;-88
2023/04/02 00:43:52;;;;;;;;;;;;;;;9.96;64.87;98830.34;5010286;28;19918;-88
2023/04/02 00:46:22;;;;;;;;;;;;;;;9.90;65.59;98825.25;4993489;28;20395;-88
2023/04/02 00:49:00;;;;;;;;;;;;;;;9.93;65.54;98820.78;5009976;28;19913;-88
2023/04/02 00:51:25;;;;;;;;;;;;;;;9.95;65.30;98826.88;5011107;28;20008;-88
2023/04/02 00:53:53;;;;;;;;;;;;;;;9.91;65.29;98829.63;5011824;28;19963;-88
2023/04/02 00:56:24;;;;;;;;;;;;;;;9.81;65.50;98826.38;5010994;28;20501;-88
2023/04/02 00:58:51;;;;;;;;;;;;;;;9.81;65.80;98829.00;4993744;28;19913;-88
2023/04/02 01:01:18;;;;;;;;;;;;;;;9.79;66.03;98833.41;4993569;28;19917;-88
2023/04/02 01:03:52;;;;;;;;;;;;;;;9.92;65.21;98834.00;5011316;28;19924;-88
2023/04/02 01:06:18;;;;;;;;;;;;;;;9.85;65.08;98842.06;5011700;28;19913;-88
2023/04/02 01:09:02;;;;;;;;;;;;;;;9.88;64.88;98840.22;5011079;28;19914;-88
2023/04/02 01:11:33;;;;;;;;;;;;;;;9.87;65.61;98839.38;5018357;28;20019;-88
2023/04/02 01:14:08;;;;;;;;;;;;;;;9.86;65.29;98843.75;5022414;28;19913;-88
2023/04/02 01:16:41;;;;;;;;;;;;;;;9.68;66.12;98847.75;5020234;28;20520;-88
2023/04/02 01:19:21;;;;;;;;;;;;;;;9.58;65.71;98848.88;5022717;28;20318;-89
2023/04/02 01:21:56;;;;;;;;;;;;;;;9.72;65.41;98834.50;5016010;28;19913;-89
2023/04/02 01:24:25;;;;;;;;;;;;;;;9.74;65.87;98838.81;5010943;28;20257;-89
2023/04/02 01:26:58;;;;;;;;;;;;;;;9.72;65.80;98848.53;5009859;28;19913;-88
2023/04/02 01:29:23;;;;;;;;;;;;;;;9.56;65.77;98848.06;5010555;28;19921;-88
2023/04/02 01:31:50;;;;;;;;;;;;;;;9.66;65.28;98843.41;5010697;28;19913;-87
2023/04/02 01:34:21;;;;;;;;;;;;;;;9.72;65.47;98837.13;5025380;28;19974;-86
2023/04/02 01:36:54;;;;;;;;;;;;;;;9.85;63.93;98855.22;5030227;28;20271;-86
2023/04/02 01:39:23;;;;;;;;;;;;;;;9.92;63.36;98857.69;5030391;28;20406;-86
2023/04/02 01:42:08;;;;;;;;;;;;;;;10.06;62.46;98852.06;5030544;28;19913;-86
2023/04/02 01:44:45;;;;;;;;;;;;;;;10.18;62.51;98852.59;5030040;28;19917;-87
2023/04/02 01:47:12;;;;;;;;;;;;;;;10.10;62.29;98854.59;5030137;28;20011;-86
2023/04/02 01:49:39;;;;;;;;;;;;;;;10.15;62.04;98849.19;5012411;28;19913;-87
2023/04/02 01:52:05;;;;;;;;;;;;;;;10.18;61.63;98847.34;5012717;28;20441;-86
2023/04/02 01:54:30;;;;;;;;;;;;;;;10.13;62.03;98854.50;5029953;28;19913;-86
2023/04/02 01:56:56;;;;;;;;;;;;;;;10.30;61.47;98853.16;5033321;28;19920;-87
2023/04/02 01:59:22;;;;;;;;;;;;;;;10.25;61.72;98841.91;5034278;28;19913;-86
2023/04/02 02:01:55;;;;;;;;;;;;;;;10.18;61.95;98854.38;5032508;28;20081;-86
2023/04/02 02:04:21;;;;;;;;;;;;;;;10.09;62.03;98852.84;5034502;28;19913;-86
2023/04/02 02:06:46;;;;;;;;;;;;;;;10.17;61.50;98853.50;5034401;28;19913;-85
2023/04/02 02:09:16;;;;;;;;;;;;;;;10.30;61.53;98846.16;5034220;28;19913;-86
2023/04/02 02:11:42;;;;;;;;;;;;;;;10.25;61.25;98840.13;4999739;28;19936;-85
2023/04/02 02:14:18;;;;;;;;;;;;;;;10.28;60.41;98839.19;5023952;28;20399;-85
2023/04/02 02:16:44;;;;;;;;;;;;;;;10.26;60.26;98833.94;5013462;28;19917;-86
2023/04/02 02:19:31;;;;;;;;;;;;;;;10.33;60.25;98837.31;5013385;28;20311;-86
2023/04/02 02:22:02;;;;;;;;;;;;;;;10.35;59.64;98832.88;5014038;28;19917;-85
2023/04/02 02:24:30;;;;;;;;;;;;;;;10.44;59.35;98832.63;5013451;28;19953;-86
2023/04/02 02:27:07;;;;;;;;;;;;;;;10.44;58.89;98837.88;5014081;28;19979;-85
2023/04/02 02:29:36;;;;;;;;;;;;;;;10.43;58.83;98833.50;5013875;28;20028;-87
2023/04/02 02:32:02;;;;;;;;;;;;;;;10.49;58.89;98837.75;5014222;28;19913;-86
2023/04/02 02:34:40;;;;;;;;;;;;;;;10.34;60.27;98820.59;5013876;28;19913;-85
2023/04/02 02:37:11;;;;;;;;;;;;;;;10.08;61.05;98823.91;5013585;28;19913;-85
2023/04/02 02:39:40;;;;;;;;;;;;;;;10.08;60.75;98819.50;5013453;28;19961;-86
2023/04/02 02:42:08;;;;;;;;;;;;;;;10.06;60.25;98818.69;5013476;28;19913;-86
2023/04/02 02:44:36;;;;;;;;;;;;;;;10.19;59.42;98817.44;5013188;28;19921;-86
2023/04/02 02:47:05;;;;;;;;;;;;;;;10.47;57.85;98818.47;5013320;28;19914;-84
2023/04/02 02:49:32;;;;;;;;;;;;;;;10.68;57.57;98809.91;5013259;28;19914;-86
2023/04/02 02:52:00;;;;;;;;;;;;;;;10.73;57.26;98825.63;4996295;28;19913;-88
2023/04/02 02:54:26;;;;;;;;;;;;;;;10.68;57.57;98816.97;5012866;28;20387;-86
2023/04/02 02:56:54;;;;;;;;;;;;;;;10.61;58.38;98816.28;5013154;28;19913;-85
2023/04/02 02:59:20;;;;;;;;;;;;;;;10.71;58.34;98823.03;5013078;28;20035;-86
2023/04/02 03:01:46;;;;;;;;;;;;;;;10.84;58.75;98820.88;5012810;28;20011;-85
2023/04/02 03:04:12;;;;;;;;;;;;;;;10.81;58.76;98825.38;5013002;28;19913;-89
2023/04/02 03:06:39;;;;;;;;;;;;;;;10.78;58.90;98828.97;5012269;28;19967;-86
2023/04/02 03:09:11;;;;;;;;;;;;;;;10.74;58.73;98835.28;5012450;28;20012;-85
2023/04/02 03:11:42;;;;;;;;;;;;;;;10.69;58.78;98823.97;5013721;28;19913;-87
2023/04/02 03:14:21;;;;;;;;;;;;;;;10.72;58.11;98831.78;5013384;28;19909;-85
2023/04/02 03:16:49;;;;;;;;;;;;;;;10.65;58.55;98827.63;5012718;28;19913;-85
2023/04/02 03:19:33;;;;;;;;;;;;;;;10.51;58.60;98830.66;5012256;28;20327;-86
2023/04/02 03:22:06;;;;;;;;;;;;;;;10.65;58.82;98824.97;5013250;28;19913;-87
2023/04/02 03:24:31;;;;;;;;;;;;;;;10.58;58.75;98824.28;5012640;28;19921;-85
2023/04/02 03:27:10;;;;;;;;;;;;;;;10.72;59.10;98831.78;5012709;28;19980;-87
2023/04/02 03:29:39;;;;;;;;;;;;;;;10.77;58.78;98836.94;5012315;28;19924;-84
2023/04/02 03:32:11;;;;;;;;;;;;;;;10.97;58.58;98845.13;5012382;28;19920;-87
2023/04/02 03:34:40;;;;;;;;;;;;;;;10.83;58.82;98839.38;5012201;28;19913;-85
2023/04/02 03:37:21;;;;;;;;;;;;;;;10.86;59.23;98845.47;5012372;28;19913;-85
2023/04/02 03:39:58;;;;;;;;;;;;;;;10.86;59.34;98841.94;5011983;28;19960;-84
2023/04/02 03:42:25;;;;;;;;;;;;;;;10.91;59.19;98842.69;5012375;28;20004;-86
2023/04/02 03:44:56;;;;;;;;;;;;;;;10.95;59.86;98841.66;5011488;28;19917;-86
2023/04/02 03:47:38;;;;;;;;;;;;;;;10.88;59.47;98842.78;5011635;28;19957;-85
2023/04/02 03:50:04;;;;;;;;;;;;;;;10.90;59.47;98846.22;5011134;28;19914;-86
2023/04/02 03:52:29;;;;;;;;;;;;;;;10.88;58.83;98850.69;5011437;28;19921;-84
2023/04/02 03:54:55;;;;;;;;;;;;;;;10.82;58.50;98846.44;5011713;28;20337;-84
2023/04/02 03:57:42;;;;;;;;;;;;;;;10.87;58.28;98851.59;5010781;28;20387;-84
2023/04/02 04:00:34;;;;;;;;;;;;;;;11.04;57.43;98848.44;5011567;28;20421;-85
2023/04/02 04:03:13;;;;;;;;;;;;;;;10.93;57.96;98844.34;5008614;28;19924;-87
2023/04/02 04:05:49;;;;;;;;;;;;;;;11.06;57.21;98844.84;5011918;28;19913;-84
2023/04/02 04:08:17;;;;;;;;;;;;;;;11.06;57.59;98846.59;5012058;28;19917;-84
2023/04/02 04:10:43;;;;;;;;;;;;;;;11.12;57.43;98846.44;5011822;28;20306;-84
2023/04/02 04:13:12;;;;;;;;;;;;;;;11.16;57.90;98839.28;5010786;28;20018;-85
2023/04/02 04:15:50;;;;;;;;;;;;;;;11.04;57.71;98846.66;5007175;28;19917;-84
2023/04/02 04:18:18;;;;;;;;;;;;;;;11.09;57.47;98857.97;5007533;28;20383;-84
2023/04/02 04:20:49;;;;;;;;;;;;;;;10.84;58.10;98862.22;5011468;28;19924;-84
2023/04/02 04:23:18;;;;;;;;;;;;;;;10.90;58.23;98865.53;5010995;28;19971;-85
2023/04/02 04:25:44;;;;;;;;;;;;;;;11.06;57.78;98871.25;5010556;28;19996;-85
2023/04/02 04:28:09;;;;;;;;;;;;;;;11.03;57.12;98871.34;5011180;28;20001;-86
2023/04/02 04:30:47;;;;;;;;;;;;;;;11.00;56.84;98865.28;5011485;28;19921;-84
2023/04/02 04:33:27;;;;;;;;;;;;;;;10.86;56.79;98886.78;4998434;28;19917;-85
2023/04/02 04:35:57;;;;;;;;;;;;;;;10.90;56.17;98884.00;4991490;28;19967;-85
2023/04/02 04:38:26;;;;;;;;;;;;;;;10.93;56.56;98883.91;5001671;28;19913;-84
2023/04/02 04:40:57;;;;;;;;;;;;;;;11.12;57.15;98872.81;5011480;28;20007;-84
2023/04/02 04:43:32;;;;;;;;;;;;;;;11.23;56.98;98878.66;5011688;28;19972;-87
2023/04/02 04:46:04;;;;;;;;;;;;;;;11.32;57.03;98884.56;4993404;28;20044;-86
2023/04/02 04:48:52;;;;;;;;;;;;;;;11.40;57.03;98871.97;5000033;28;20004;-86
2023/04/02 04:51:26;;;;;;;;;;;;;;;11.38;57.26;98869.38;5004849;28;19914;-85
2023/04/02 04:53:53;;;;;;;;;;;;;;;11.09;58.11;98876.44;5006539;28;19921;-85
2023/04/02 04:56:22;;;;;;;;;;;;;;;11.29;58.16;98878.47;5009152;28;19917;-85
2023/04/02 04:58:50;;;;;;;;;;;;;;;11.37;57.50;98866.78;5008471;28;19917;-85
2023/04/02 05:01:27;;;;;;;;;;;;;;;11.53;57.04;98878.59;5010191;28;20381;-86
2023/04/02 05:04:05;;;;;;;;;;;;;;;11.73;56.43;98880.59;5008846;28;19917;-86
2023/04/02 05:06:30;;;;;;;;;;;;;;;11.80;56.57;98899.75;5000271;28;19999;-85
2023/04/02 05:09:00;;;;;;;;;;;;;;;11.50;59.15;98910.38;5006707;28;20387;-86
2023/04/02 05:11:35;;;;;;;;;;;;;;;11.33;60.52;98907.41;5007138;28;19921;-86
2023/04/02 05:14:05;;;;;;;;;;;;;;;11.07;61.38;98901.13;5005862;28;19948;-85
2023/04/02 05:16:36;;;;;;;;;;;;;;;11.11;60.91;98905.44;5005818;28;19917;-88
2023/04/02 05:19:11;;;;;;;;;;;;;;;11.35;60.67;98911.72;4990262;28;19923;-84
2023/04/02 05:21:41;;;;;;;;;;;;;;;11.56;60.37;98898.78;5011454;28;19951;-87
2023/04/02 05:24:27;;;;;;;;;;;;;;;11.57;59.37;98897.84;4974201;28;19921;-90
2023/04/02 05:26:57;;;;;;;;;;;;;;;11.25;60.94;98900.59;5005855;28;19917;-91
2023/04/02 05:29:35;;;;;;;;;;;;;;;11.35;60.28;98908.22;5010089;28;19920;-91
2023/04/02 05:32:05;;;;;;;;;;;;;;;11.51;59.86;98916.53;5012828;28;19975;-87
2023/04/02 05:34:38;;;;;;;;;;;;;;;11.56;58.95;98910.19;5007235;28;19967;-88
2023/04/02 05:37:04;;;;;;;;;;;;;;;11.76;57.62;98908.72;5012257;28;19913;-87
2023/04/02 05:39:31;;;;;;;;;;;;;;;11.89;57.83;98911.81;5012238;28;19918;-87
2023/04/02 05:42:02;;;;;;;;;;;;;;;11.99;57.87;98916.78;5011517;28;19917;-88
2023/04/02 05:44:32;;;;;;;;;;;;;;;12.27;57.05;98915.00;5013706;28;19913;-87
2023/04/02 05:47:03;;;;;;;;;;;;;;;12.41;56.09;98915.38;5013635;28;19991;-90
2023/04/02 05:49:39;;;;;;;;;;;;;;;12.49;57.05;98918.59;5014132;28;19913;-90
2023/04/02 05:52:08;;;;;;;;;;;;;;;12.64;55.53;98916.34;5012412;28;20012;-87
2023/04/02 05:54:38;;;;;;;;;;;;;;;12.66;53.48;98917.13;5006997;28;19957;-88
2023/04/02 05:57:08;;;;;;;;;;;;;;;12.74;54.83;98919.50;5003005;28;19984;-88
2023/04/02 05:59:39;;;;;;;;;;;;;;;12.65;55.06;98924.22;5007794;28;20015;-87
2023/04/02 06:02:14;;;;;;;;;;;;;;;12.96;53.98;98923.09;5005300;28;20397;-87
2023/04/02 06:04:48;;;;;;;;;;;;;;;13.36;53.54;98926.94;5009084;28;20381;-87
2023/04/02 06:07:21;;;;;;;;;;;;;;;13.44;53.44;98924.00;5006028;28;19917;-86
2023/04/02 06:09:59;;;;;;;;;;;;;;;13.66;52.69;98941.69;5006208;28;20418;-85
2023/04/02 06:12:31;;;;;;;;;;;;;;;14.04;51.44;98929.53;4993270;28;20013;-85
2023/04/02 06:14:57;;;;;;;;;;;;;;;14.21;51.22;98933.25;4987943;28;20362;-85
2023/04/02 06:17:22;;;;;;;;;;;;;;;14.71;51.28;98935.56;4995091;28;19918;-85
2023/04/02 06:19:48;;;;;;;;;;;;;;;14.82;49.94;98932.44;5008641;28;19917;-85
2023/04/02 06:22:20;;;;;;;;;;;;;;;15.33;50.71;98941.63;5006757;28;19944;-86
2023/04/02 06:24:49;;;;;;;;;;;;;;;15.65;50.36;98933.94;5010568;28;19917;-86
2023/04/02 06:27:18;;;;;;;;;;;;;;;15.40;48.69;98929.78;5006628;28;20377;-86
2023/04/02 06:29:44;;;;;;;;;;;;;;;15.14;49.28;98932.78;4986819;28;20377;-87
2023/04/02 06:32:11;;;;;;;;;;;;;;;15.17;48.24;98937.97;5008005;28;19918;-85
2023/04/02 06:34:38;;;;;;;;;;;;;;;14.84;46.99;98939.41;5001776;28;19921;-86
2023/04/02 06:37:12;;;;;;;;;;;;;;;14.76;46.53;98948.63;5010371;28;19917;-86
2023/04/02 06:39:37;;;;;;;;;;;;;;;14.82;47.75;98943.91;4988048;28;19922;-84
2023/04/02 06:42:10;;;;;;;;;;;;;;;14.90;47.27;98945.38;4993443;28;19967;-85
2023/04/02 06:44:36;;;;;;;;;;;;;;;14.64;46.27;98950.03;4988296;28;20271;-85
2023/04/02 06:47:06;;;;;;;;;;;;;;;14.51;47.25;98949.69;5012837;28;19913;-85
2023/04/02 06:49:39;;;;;;;;;;;;;;;14.30;47.68;98951.44;5007068;28;20364;-84
2023/04/02 06:52:07;;;;;;;;;;;;;;;14.60;47.64;98957.28;4996621;28;19924;-88
2023/04/02 06:54:32;;;;;;;;;;;;;;;14.78;49.17;98954.72;5007553;28;19921;-88
2023/04/02 06:56:58;;;;;;;;;;;;;;;14.60;48.80;98964.34;5012233;28;19975;-88
2023/04/02 06:59:23;;;;;;;;;;;;;;;14.78;48.81;98962.69;5008207;28;20331;-85
2023/04/02 07:01:57;;;;;;;;;;;;;;;15.09;49.47;98956.91;5010253;28;19925;-85
2023/04/02 07:04:23;;;;;;;;;;;;;;;15.20;47.85;98962.59;4997934;28;20113;-86
2023/04/02 07:06:48;;;;;;;;;;;;;;;15.27;46.44;98957.84;5005931;28;19913;-84
2023/04/02 07:09:14;;;;;;;;;;;;;;;15.29;46.62;98960.44;4994666;28;20303;-83
2023/04/02 07:11:39;;;;;;;;;;;;;;;15.03;47.34;98954.53;5003528;28;20016;-84
2023/04/02 07:14:05;;;;;;;;;;;;;;;15.06;46.29;98961.47;5012144;28;19925;-84
2023/04/02 07:16:35;;;;;;;;;;;;;;;15.18;45.92;98956.50;5010615;28;19917;-85
2023/04/02 07:19:02;;;;;;;;;;;;;;;14.92;45.97;98962.09;5012152;28;19919;-84
2023/04/02 07:21:28;;;;;;;;;;;;;;;14.94;45.54;98971.72;5012466;28;20011;-82
2023/04/02 07:23:54;;;;;;;;;;;;;;;15.19;44.72;98962.66;5011964;28;19913;-85
2023/04/02 07:26:21;;;;;;;;;;;;;;;15.34;44.38;98972.56;5012368;28;20410;-85
2023/04/02 07:28:47;;;;;;;;;;;;;;;15.40;43.68;98972.28;5012631;28;19913;-83
2023/04/02 07:31:16;;;;;;;;;;;;;;;15.45;43.34;98977.41;5011922;28;20410;-85
2023/04/02 07:33:42;;;;;;;;;;;;;;;15.32;42.31;98977.13;5012421;28;19967;-82
2023/04/02 07:36:11;;;;;;;;;;;;;;;15.09;41.67;98986.13;5012019;28;19960;-82
2023/04/02 07:38:36;;;;;;;;;;;;;;;15.17;43.36;98980.47;5012059;28;20015;-83
2023/04/02 07:41:05;;;;;;;;;;;;;;;15.43;42.07;98981.94;5011901;28;20001;-82
2023/04/02 07:43:30;;;;;;;;;;;;;;;15.51;42.39;98982.44;5010203;28;19949;-80
2023/04/02 07:45:56;;;;;;;;;;;;;;;15.56;43.26;98980.41;5007828;28;19956;-81
2023/04/02 07:48:22;;;;;;;;;;;;;;;15.56;42.48;98977.75;5011477;28;19930;-80
2023/04/02 07:50:47;;;;;;;;;;;;;;;15.64;41.25;98968.56;4999072;28;20295;-79
2023/04/02 07:53:28;;;;;;;;;;;;;;;15.78;42.27;98971.44;4992788;28;19914;-84
2023/04/02 07:55:54;;;;;;;;;;;;;;;16.06;42.24;98970.09;4997790;28;20380;-82
2023/04/02 07:58:20;;;;;;;;;;;;;;;16.10;41.07;98956.59;4993479;28;20429;-83
2023/04/02 08:00:45;;;;;;;;;;;;;;;16.19;42.63;98957.94;5003895;28;20020;-84
2023/04/02 08:03:12;;;;;;;;;;;;;;;16.60;42.31;98965.59;5011172;28;20202;-84
2023/04/02 08:05:37;;;;;;;;;;;;;;;16.60;38.65;98952.28;5010216;28;19940;-83
2023/04/02 08:08:02;;;;;;;;;;;;;;;16.60;39.43;98954.97;5011816;28;19917;-83
2023/04/02 08:10:27;;;;;;;;;;;;;;;16.77;39.37;98956.75;5011592;28;19918;-84
2023/04/02 08:12:53;;;;;;;;;;;;;;;16.67;40.53;98959.97;5011638;28;19914;-83
2023/04/02 08:15:18;;;;;;;;;;;;;;;16.98;38.74;98962.78;4993570;28;19913;-83
2023/04/02 08:17:44;;;;;;;;;;;;;;;16.84;38.36;98954.66;5012028;28;19913;-84
2023/04/02 08:20:21;;;;;;;;;;;;;;;16.81;38.50;98946.81;5011914;28;20015;-84
2023/04/02 08:22:47;;;;;;;;;;;;;;;17.34;38.33;98955.56;4993551;28;20358;-85
2023/04/02 08:25:12;;;;;;;;;;;;;;;17.59;38.59;98952.41;5011599;28;20393;-85
2023/04/02 08:27:38;;;;;;;;;;;;;;;17.40;36.44;98957.91;5011167;28;19913;-85
2023/04/02 08:30:04;;;;;;;;;;;;;;;17.46;35.93;98954.03;4994032;28;19917;-84
2023/04/02 08:32:29;;;;;;;;;;;;;;;17.18;37.63;98955.53;5011612;28;19987;-85
2023/04/02 08:34:55;;;;;;;;;;;;;;;16.92;38.00;98947.13;5011514;28;19913;-84
2023/04/02 08:37:20;;;;;;;;;;;;;;;17.13;40.51;98944.25;5011453;28;20015;-84
2023/04/02 08:39:45;;;;;;;;;;;;;;;17.12;37.05;98948.72;5011500;28;19914;-84
2023/04/02 08:42:29;;;;;;;;;;;;;;;17.03;37.82;98945.72;4993557;28;19932;-85
2023/04/02 08:45:15;;;;;;;;;;;;;;;17.11;37.71;98951.47;5011096;28;19919;-85
2023/04/02 08:47:43;;;;;;;;;;;;;;;17.34;37.30;98955.56;5010842;28;19917;-83
2023/04/02 08:50:08;;;;;;;;;;;;;;;17.03;37.15;98951.88;5011548;28;19913;-85
2023/04/02 08:52:36;;;;;;;;;;;;;;;17.10;39.58;98953.28;5010810;28;19909;-84
2023/04/02 08:55:03;;;;;;;;;;;;;;;17.57;37.92;98961.44;5010804;28;19913;-84
2023/04/02 08:57:28;;;;;;;;;;;;;;;17.72;37.20;98949.94;5011420;28;19920;-83
2023/04/02 09:00:06;;;;;;;;;;;;;;;17.86;34.43;98946.47;5011040;28;20312;-83
2023/04/02 09:02:37;;;;;;;;;;;;;;;17.85;34.25;98944.75;4993247;28;19918;-83
2023/04/02 09:05:05;;;;;;;;;;;;;;;17.78;34.07;98943.38;4992904;28;19913;-83
2023/04/02 09:07:32;;;;;;;;;;;;;;;17.45;35.72;98949.66;4992101;28;19920;-82
2023/04/02 09:09:57;;;;;;;;;;;;;;;17.36;35.08;98938.56;5010031;28;20088;-84
2023/04/02 09:12:28;;;;;;;;;;;;;;;17.41;33.99;98942.75;4992021;28;20310;-81
2023/04/02 09:14:59;;;;;;;;;;;;;;;17.77;34.34;98934.50;5009458;28;20402;-83
2023/04/02 09:17:25;;;;;;;;;;;;;;;18.11;33.99;98931.75;5010568;28;20026;-84
2023/04/02 09:20:00;;;;;;;;;;;;;;;18.13;35.40;98932.53;5010352;28;19972;-85
2023/04/02 09:22:27;;;;;;;;;;;;;;;18.28;33.84;98928.94;5011163;28;19913;-83
2023/04/02 09:24:57;;;;;;;;;;;;;;;18.16;34.50;98929.69;5010693;28;20001;-86
2023/04/02 09:27:28;;;;;;;;;;;;;;;18.08;33.59;98925.63;5011661;28;19920;-85
2023/04/02 09:29:56;;;;;;;;;;;;;;;18.37;33.99;98924.91;5011218;28;19933;-84
2023/04/02 09:32:22;;;;;;;;;;;;;;;17.64;33.44;98933.47;4993270;28;20336;-84
2023/04/02 09:34:47;;;;;;;;;;;;;;;17.61;35.40;98928.31;5011582;28;20008;-86
2023/04/02 09:37:17;;;;;;;;;;;;;;;17.87;37.78;98926.84;5010577;28;19917;-85
2023/04/02 09:39:42;;;;;;;;;;;;;;;18.35;35.01;98914.31;5010617;28;19913;-86
2023/04/02 09:42:27;;;;;;;;;;;;;;;18.58;32.24;98907.59;4991721;28;20024;-84
2023/04/02 09:45:10;;;;;;;;;;;;;;;18.33;31.92;98913.50;5009034;28;19920;-85
2023/04/02 09:47:36;;;;;;;;;;;;;;;18.75;33.42;98919.03;5009816;28;20363;-84
2023/04/02 09:50:20;;;;;;;;;;;;;;;18.46;31.96;98902.09;4991938;28;19964;-83
2023/04/02 09:52:46;;;;;;;;;;;;;;;18.85;31.94;98906.03;5009809;28;20316;-85
2023/04/02 09:55:14;;;;;;;;;;;;;;;18.96;32.38;98901.72;5009625;28;19927;-82
2023/04/02 09:57:40;;;;;;;;;;;;;;;18.82;31.50;98900.84;5009969;28;19920;-83
2023/04/02 10:00:11;;;;;;;;;;;;;;;18.51;31.97;98897.38;5009390;28;19913;-83
2023/04/02 10:02:36;;;;;;;;;;;;;;;18.71;32.42;98893.47;4992148;28;20403;-82
2023/04/02 10:05:03;;;;;;;;;;;;;;;18.85;32.31;98890.00;5009562;28;19913;-84
2023/04/02 10:07:48;;;;;;;;;;;;;;;18.58;32.50;98888.00;5009558;28;19924;-84
2023/04/02 10:10:28;;;;;;;;;;;;;;;18.88;31.53;98879.97;5009333;28;20402;-84
2023/04/02 10:13:01;;;;;;;;;;;;;;;19.16;31.61;98869.38;5009350;28;19917;-84
2023/04/02 10:15:32;;;;;;;;;;;;;;;19.36;32.44;98868.94;5009360;28;19914;-83
2023/04/02 10:18:05;;;;;;;;;;;;;;;19.24;31.28;98875.06;5012212;28;19945;-84
2023/04/02 10:20:32;;;;;;;;;;;;;;;19.73;32.89;98863.03;5013173;28;19918;-84
2023/04/02 10:22:57;;;;;;;;;;;;;;;20.01;33.90;98862.91;5012448;28;20318;-85
2023/04/02 10:25:26;;;;;;;;;;;;;;;19.98;31.12;98860.44;4995630;28;19917;-83
2023/04/02 10:27:55;;;;;;;;;;;;;;;19.99;30.53;98854.13;5007335;28;19913;-83
2023/04/02 10:30:20;;;;;;;;;;;;;;;20.31;32.06;98861.81;4995880;28;19968;-83
2023/04/02 10:32:45;;;;;;;;;;;;;;;20.21;32.65;98855.34;5012994;28;19952;-85
2023/04/02 10:35:19;;;;;;;;;;;;;;;20.31;30.54;98856.47;5012289;28;19914;-82
2023/04/02 10:37:51;;;;;;;;;;;;;;;19.99;29.58;98850.59;5010181;28;20345;-82
2023/04/02 10:40:16;;;;;;;;;;;;;;;19.85;29.54;98855.06;4999555;28;19925;-82
2023/04/02 10:42:51;;;;;;;;;;;;;;;19.94;29.81;98847.38;4994863;28;20338;-82
2023/04/02 10:45:32;;;;;;;;;;;;;;;20.25;31.65;98854.19;4993810;28;19914;-83
2023/04/02 10:48:21;;;;;;;;;;;;;;;19.94;29.90;98855.41;4988478;28;20015;-81
2023/04/02 10:51:05;;;;;;;;;;;;;;;20.13;28.53;98845.16;4932746;29;20493;-83
2023/04/02 10:53:56;;;;;;;;;;;;;;;20.45;29.44;98838.56;4934276;29;19937;-85
2023/04/02 10:56:22;;;;;;;;;;;;;;;20.84;31.77;98839.47;4886106;29;19922;-86
2023/04/02 10:58:54;;;;;;;;;;;;;;;20.80;28.64;98833.44;4924983;29;19921;-83
2023/04/02 11:01:22;;;;;;;;;;;;;;;20.27;28.38;98833.53;4914989;29;19930;-82
2023/04/02 11:03:54;;;;;;;;;;;;;;;20.66;31.41;98830.88;4932526;29;19918;-83
2023/04/02 11:06:22;;;;;;;;;;;;;;;21.11;30.77;98826.72;4929891;29;19923;-85
2023/04/02 11:08:50;;;;;;;;;;;;;;;21.53;30.35;98825.56;4929131;29;19919;-85
2023/04/02 11:11:15;;;;;;;;;;;;;;;21.61;28.89;98818.66;4927998;29;20018;-85
2023/04/02 11:13:55;;;;;;;;;;;;;;;21.35;28.98;98822.38;4926412;29;20009;-86
2023/04/02 11:16:21;;;;;;;;;;;;;;;21.06;27.81;98828.88;4931538;29;19918;-84
2023/04/02 11:19:05;;;;;;;;;;;;;;;21.29;29.65;98818.31;4931197;29;20353;-86
2023/04/02 11:21:41;;;;;;;;;;;;;;;21.34;29.70;98820.69;4928334;29;19926;-86
2023/04/02 11:24:23;;;;;;;;;;;;;;;21.24;28.19;98820.47;4929825;29;19951;-85
2023/04/02 11:26:49;;;;;;;;;;;;;;;20.81;27.20;98813.72;4936483;28;20669;-86
2023/04/02 11:29:28;;;;;;;;;;;;;;;21.07;28.12;98816.38;5004466;28;19921;-87
2023/04/02 11:32:13;;;;;;;;;;;;;;;21.11;26.68;98804.44;5011702;28;20387;-87
2023/04/02 11:34:48;;;;;;;;;;;;;;;21.24;26.06;98807.06;4931151;29;19915;-85
2023/04/02 11:37:31;;;;;;;;;;;;;;;21.04;25.71;98804.03;4931031;29;19922;-87
2023/04/02 11:40:05;;;;;;;;;;;;;;;21.28;27.02;98796.00;4922345;29;19919;-88
2023/04/02 11:42:32;;;;;;;;;;;;;;;21.35;26.76;98798.22;4927133;29;19957;-86
2023/04/02 11:44:59;;;;;;;;;;;;;;;21.25;28.26;98804.25;4930262;29;19914;-87
2023/04/02 11:47:26;;;;;;;;;;;;;;;21.32;26.11;98793.09;4929217;29;20309;-86
2023/04/02 11:49:54;;;;;;;;;;;;;;;21.08;26.63;98791.25;4930762;29;19954;-86
2023/04/02 11:52:24;;;;;;;;;;;;;;;21.27;27.02;98786.25;4930827;29;19915;-87
2023/04/02 11:54:55;;;;;;;;;;;;;;;21.65;29.30;98784.41;4932216;29;20465;-86
2023/04/02 11:57:20;;;;;;;;;;;;;;;21.78;26.13;98778.94;4931833;29;20397;-84
2023/04/02 12:00:14;;;;;;;;;;;;;;;21.99;28.59;98777.31;4931633;29;19914;-85
2023/04/02 12:02:52;;;;;;;;;;;;;;;22.16;25.58;98775.16;4931315;29;20030;-85
2023/04/02 12:05:36;;;;;;;;;;;;;;;22.11;28.44;98767.47;4931202;29;19915;-87
2023/04/02 12:08:10;;;;;;;;;;;;;;;21.80;25.53;98771.66;4931165;29;19942;-87
2023/04/02 12:10:47;;;;;;;;;;;;;;;21.96;25.56;98772.19;4932263;28;19918;-85
2023/04/02 12:13:20;;;;;;;;;;;;;;;21.98;25.33;98756.81;4991524;28;19976;-85
2023/04/02 12:15:46;;;;;;;;;;;;;;;21.79;26.13;98768.09;4991639;28;19972;-86
2023/04/02 12:18:22;;;;;;;;;;;;;;;21.74;25.95;98762.22;4990921;28;19913;-85
2023/04/02 12:20:51;;;;;;;;;;;;;;;21.49;28.92;98762.34;4991702;28;19995;-86
2023/04/02 12:23:19;;;;;;;;;;;;;;;21.98;28.47;98758.63;4991144;28;19964;-87
2023/04/02 12:25:51;;;;;;;;;;;;;;;22.20;28.01;98759.66;4991190;28;19956;-85
2023/04/02 12:28:17;;;;;;;;;;;;;;;22.04;26.68;98760.00;4992340;28;19909;-84
2023/04/02 12:30:44;;;;;;;;;;;;;;;21.90;26.45;98764.59;4991445;28;20387;-84
2023/04/02 12:33:29;;;;;;;;;;;;;;;21.71;27.01;98765.16;4991873;28;20404;-84
2023/04/02 12:35:58;;;;;;;;;;;;;;;21.82;25.71;98761.66;4992270;28;20068;-85
2023/04/02 12:38:32;;;;;;;;;;;;;;;21.74;26.65;98759.56;4991946;28;19917;-85
2023/04/02 12:40:59;;;;;;;;;;;;;;;21.69;26.43;98760.84;4990785;28;19917;-84
2023/04/02 12:43:24;;;;;;;;;;;;;;;22.00;26.27;98757.56;4991841;28;19914;-85
2023/04/02 12:45:53;;;;;;;;;;;;;;;22.07;26.11;98757.06;4991259;28;20302;-85
2023/04/02 12:48:19;;;;;;;;;;;;;;;21.89;25.72;98753.97;4991498;28;20347;-84
2023/04/02 12:50:45;;;;;;;;;;;;;;;21.59;27.10;98752.66;4991795;28;19949;-83
2023/04/02 12:53:19;;;;;;;;;;;;;;;21.54;26.18;98755.69;4991603;28;20003;-84
2023/04/02 12:55:46;;;;;;;;;;;;;;;21.50;28.70;98754.19;4973689;28;19914;-85
2023/04/02 12:58:44;;;;;;;;;;;;;;;21.75;26.94;98747.84;4991281;28;20319;-85
2023/04/02 13:01:09;;;;;;;;;;;;;;;21.70;25.87;98754.53;4931058;29;19977;-84
2023/04/02 13:03:34;;;;;;;;;;;;;;;21.66;25.41;98755.72;4930947;29;20009;-85
2023/04/02 13:06:00;;;;;;;;;;;;;;;21.96;24.65;98741.78;4931493;29;19926;-85